createdAt,value
2019-01-23T00:01:40.082Z,211.47
2019-01-23T00:04:11.162Z,211.67
2019-01-23T00:06:42.254Z,223.37
2019-01-23T00:09:13.366Z,200.43
2019-01-23T00:11:44.442Z,201.03
2019-01-23T00:14:15.570Z,209.97
2019-01-23T00:16:46.764Z,195.13
2019-01-23T00:19:17.861Z,207.07
2019-01-23T00:21:49.034Z,193.07
2019-01-23T00:24:20.092Z,183.33
2019-01-23T00:26:51.179Z,204.47
2019-01-23T00:29:22.245Z,190.17
2019-01-23T00:31:53.315Z,200.43
2019-01-23T00:34:24.421Z,184.73
2019-01-23T00:36:55.474Z,210.20
2019-01-23T00:39:26.592Z,206.10
2019-01-23T00:41:57.669Z,180.27
2019-01-23T00:44:28.763Z,182.57
2019-01-23T00:46:59.807Z,197.83
2019-01-23T00:49:30.904Z,177.47
2019-01-23T00:52:02.021Z,201.00
2019-01-23T00:54:33.320Z,187.10
2019-01-23T00:57:04.558Z,178.37
2019-01-23T00:59:35.662Z,181.57
2019-01-23T01:02:06.966Z,186.80
2019-01-23T01:04:38.022Z,159.80
2019-01-23T01:07:09.133Z,175.17
2019-01-23T01:09:40.207Z,172.93
2019-01-23T01:12:11.309Z,161.93
2019-01-23T01:14:42.364Z,180.83
2019-01-23T01:17:13.455Z,156.47
2019-01-23T01:19:44.560Z,160.57
2019-01-23T01:22:15.623Z,160.47
2019-01-23T01:24:46.674Z,153.73
2019-01-23T01:27:17.751Z,148.43
2019-01-23T01:29:48.890Z,152.73
2019-01-23T01:32:19.957Z,169.57
2019-01-23T01:34:51.171Z,162.43
2019-01-23T01:37:22.250Z,154.00
2019-01-23T01:39:53.315Z,161.60
2019-01-23T01:42:24.398Z,141.27
2019-01-23T01:44:55.532Z,149.40
2019-01-23T01:47:26.609Z,148.27
2019-01-23T01:49:57.733Z,154.00
2019-01-23T01:52:28.889Z,136.27
2019-01-23T01:55:00.021Z,138.50
2019-01-23T01:57:31.154Z,143.20
2019-01-23T02:00:02.276Z,124.27
2019-01-23T02:02:33.421Z,125.27
2019-01-23T02:05:04.689Z,122.80
2019-01-23T02:07:35.768Z,133.07
2019-01-23T02:10:08.842Z,135.67
2019-01-23T02:12:39.970Z,120.03
2019-01-23T02:15:12.883Z,122.10
2019-01-23T02:17:44.261Z,124.50
2019-01-23T02:20:23.793Z,128.70
2019-01-23T02:22:54.956Z,118.83
2019-01-23T02:25:26.165Z,128.17
2019-01-23T02:27:57.210Z,121.17
2019-01-23T02:30:28.483Z,121.77
2019-01-23T02:32:59.531Z,103.17
2019-01-23T02:35:30.614Z,115.00
2019-01-23T02:38:01.675Z,107.30
2019-01-23T02:40:32.857Z,100.73
2019-01-23T02:43:04.038Z,121.63
2019-01-23T02:45:35.144Z,102.47
2019-01-23T02:48:06.239Z,101.30
2019-01-23T02:50:37.272Z,93.60
2019-01-23T02:53:16.078Z,107.13
2019-01-23T02:55:54.149Z,98.67
2019-01-23T02:58:30.393Z,96.63
2019-01-23T03:01:01.568Z,106.47
2019-01-23T03:03:32.684Z,110.53
2019-01-23T03:06:03.966Z,104.27
2019-01-23T03:08:35.163Z,111.97
2019-01-23T03:11:06.297Z,105.87
2019-01-23T03:13:37.521Z,98.87
2019-01-23T03:16:08.529Z,93.13
2019-01-23T03:18:39.605Z,115.77
2019-01-23T03:21:10.690Z,106.63
2019-01-23T03:23:41.785Z,108.37
2019-01-23T03:26:12.871Z,102.03
2019-01-23T03:28:44.004Z,93.10
2019-01-23T03:31:16.154Z,89.60
2019-01-23T03:33:47.248Z,84.53
2019-01-23T03:36:18.334Z,87.83
2019-01-23T03:38:49.460Z,87.90
2019-01-23T03:41:32.088Z,104.87
2019-01-23T03:44:03.170Z,106.80
2019-01-23T03:46:34.335Z,104.87
2019-01-23T03:49:05.691Z,109.47
2019-01-23T03:51:36.761Z,101.73
2019-01-23T03:54:07.807Z,116.33
2019-01-23T03:56:38.910Z,110.23
2019-01-23T03:59:10.018Z,114.27
2019-01-23T04:01:41.084Z,108.10
2019-01-23T04:04:12.346Z,126.43
2019-01-23T04:06:43.420Z,104.00
2019-01-23T04:09:14.495Z,121.20
2019-01-23T04:11:45.644Z,115.83
2019-01-23T04:14:16.792Z,103.07
2019-01-23T04:16:47.883Z,108.77
2019-01-23T04:19:18.992Z,112.90
2019-01-23T04:21:50.028Z,117.17
2019-01-23T04:24:22.214Z,108.07
2019-01-23T04:26:53.262Z,108.10
2019-01-23T04:29:24.343Z,112.73
2019-01-23T04:31:55.449Z,102.13
2019-01-23T04:34:26.530Z,111.07
2019-01-23T04:36:57.690Z,104.40
2019-01-23T04:39:28.767Z,104.23
2019-01-23T04:41:59.828Z,105.90
2019-01-23T04:44:30.914Z,102.80
2019-01-23T04:47:01.997Z,96.53
2019-01-23T04:49:33.069Z,109.33
2019-01-23T04:52:10.119Z,98.67
2019-01-23T04:54:41.200Z,112.37
2019-01-23T04:57:12.335Z,103.93
2019-01-23T04:59:46.910Z,102.73
2019-01-23T05:02:16.115Z,112.57
2019-01-23T05:04:47.216Z,105.27
2019-01-23T05:07:18.298Z,100.53
2019-01-23T05:09:49.424Z,98.70
2019-01-23T05:12:20.503Z,106.77
2019-01-23T05:14:51.567Z,106.40
2019-01-23T05:17:22.706Z,102.80
2019-01-23T05:19:53.758Z,107.80
2019-01-23T05:22:36.116Z,101.13
2019-01-23T05:25:07.406Z,107.03
2019-01-23T05:27:38.982Z,98.37
2019-01-23T05:30:14.938Z,95.70
2019-01-23T05:32:46.010Z,101.50
2019-01-23T05:35:17.099Z,103.50
2019-01-23T05:37:48.152Z,102.10
2019-01-23T05:40:19.285Z,102.57
2019-01-23T05:42:50.339Z,120.07
2019-01-23T05:45:21.399Z,113.83
2019-01-23T05:47:52.465Z,113.47
2019-01-23T05:50:23.646Z,111.70
2019-01-23T05:52:55.807Z,99.07
2019-01-23T05:55:26.854Z,84.53
2019-01-23T05:57:57.936Z,75.77
2019-01-23T06:00:28.989Z,79.60
2019-01-23T06:03:00.047Z,72.87
2019-01-23T06:05:31.085Z,79.07
2019-01-23T06:08:02.298Z,81.83
2019-01-23T06:10:33.388Z,94.43
2019-01-23T06:13:04.532Z,98.10
2019-01-23T06:15:36.541Z,84.90
2019-01-23T06:18:08.823Z,101.07
2019-01-23T06:20:40.523Z,88.30
2019-01-23T06:23:11.669Z,83.47
2019-01-23T06:25:42.866Z,93.40
2019-01-23T06:28:14.017Z,100.90
2019-01-23T06:30:45.139Z,88.53
2019-01-23T06:33:16.335Z,87.33
2019-01-23T06:35:47.814Z,82.80
2019-01-23T06:38:19.016Z,79.90
2019-01-23T06:40:50.135Z,81.47
2019-01-23T06:43:21.684Z,88.13
2019-01-23T06:46:12.471Z,98.03
2019-01-23T06:48:43.702Z,91.97
2019-01-23T06:51:14.770Z,89.17
2019-01-23T06:53:45.875Z,82.57
2019-01-23T06:56:17.220Z,87.13
2019-01-23T06:58:48.433Z,85.30
2019-01-23T07:01:19.671Z,82.40
2019-01-23T07:03:50.909Z,76.10
2019-01-23T07:06:22.180Z,73.93
2019-01-23T07:08:54.346Z,71.53
2019-01-23T07:11:25.921Z,74.10
2019-01-23T07:13:58.039Z,73.53
2019-01-23T07:16:29.226Z,64.83
2019-01-23T07:19:01.818Z,58.97
2019-01-23T07:21:33.025Z,67.13
2019-01-23T07:24:04.968Z,75.37
2019-01-23T07:26:36.142Z,69.27
2019-01-23T07:29:07.735Z,58.10
2019-01-23T07:31:39.256Z,56.20
2019-01-23T07:34:10.402Z,54.43
2019-01-23T07:36:41.481Z,60.47
2019-01-23T07:39:12.736Z,55.93
2019-01-23T07:41:43.867Z,54.27
2019-01-23T07:44:18.473Z,57.67
2019-01-23T07:46:49.676Z,54.37
2019-01-23T07:49:20.839Z,63.13
2019-01-23T07:51:52.042Z,63.93
2019-01-23T07:54:23.133Z,67.90
2019-01-23T07:56:55.316Z,65.47
2019-01-23T07:59:26.528Z,66.00
2019-01-23T08:01:57.694Z,57.30
2019-01-23T08:04:28.848Z,62.90
2019-01-23T08:07:00.123Z,56.63
2019-01-23T08:09:31.285Z,56.13
2019-01-23T08:12:02.550Z,54.47
2019-01-23T08:14:33.751Z,56.27
2019-01-23T08:17:04.943Z,57.60
2019-01-23T08:19:47.706Z,54.23
2019-01-23T08:22:19.066Z,56.40
2019-01-23T08:24:50.364Z,56.90
2019-01-23T08:27:24.564Z,47.27
2019-01-23T08:29:58.460Z,51.03
2019-01-23T08:32:29.596Z,56.57
2019-01-23T08:35:00.868Z,63.33
2019-01-23T08:37:32.142Z,63.07
2019-01-23T08:40:03.302Z,62.50
2019-01-23T08:42:34.554Z,54.47
2019-01-23T08:45:06.814Z,53.43
2019-01-23T08:47:38.770Z,49.37
2019-01-23T08:50:15.762Z,68.70
2019-01-23T08:52:47.184Z,58.13
2019-01-23T08:55:18.298Z,54.70
2019-01-23T08:57:49.470Z,54.87
2019-01-23T09:00:20.719Z,58.07
2019-01-23T09:02:51.964Z,51.20
2019-01-23T09:05:23.338Z,56.73
2019-01-23T09:07:55.579Z,62.97
2019-01-23T09:10:26.957Z,53.70
2019-01-23T09:12:58.340Z,55.60
2019-01-23T09:15:29.525Z,49.37
2019-01-23T09:18:00.637Z,41.23
2019-01-23T09:20:31.787Z,43.23
2019-01-23T09:23:02.993Z,41.87
2019-01-23T09:25:49.690Z,44.53
2019-01-23T09:28:18.290Z,46.40
2019-01-23T09:31:23.560Z,51.57
2019-01-23T09:34:39.611Z,47.27
2019-01-23T09:37:38.900Z,45.87
2019-01-23T09:40:34.859Z,49.43
2019-01-23T09:43:49.052Z,56.27
2019-01-23T09:47:16.028Z,46.53
2019-01-23T09:50:30.941Z,48.73
2019-01-23T09:53:29.640Z,46.97
2019-01-23T09:56:00.716Z,46.00
2019-01-23T09:58:31.979Z,51.73
2019-01-23T10:01:06.698Z,48.43
2019-01-23T10:03:36.388Z,52.57
2019-01-23T10:06:07.537Z,56.03
2019-01-23T10:08:38.634Z,48.67
2019-01-23T10:11:09.757Z,50.57
2019-01-23T10:13:40.843Z,50.43
2019-01-23T10:16:17.066Z,52.30
2019-01-23T10:18:48.210Z,53.07
2019-01-23T10:21:19.527Z,49.50
2019-01-23T10:23:50.740Z,51.07
2019-01-23T10:26:21.981Z,50.90
2019-01-23T10:28:53.239Z,49.20
2019-01-23T10:31:24.437Z,54.77
2019-01-23T10:33:55.505Z,49.13
2019-01-23T10:36:29.599Z,45.10
2019-01-23T10:39:00.736Z,54.23
2019-01-23T10:41:31.911Z,55.53
2019-01-23T10:44:03.068Z,57.40
2019-01-23T10:46:34.157Z,51.40
2019-01-23T10:49:06.149Z,56.13
2019-01-23T10:51:37.523Z,59.33
2019-01-23T10:54:18.168Z,66.60
2019-01-23T10:56:50.896Z,66.87
2019-01-23T10:59:22.015Z,61.07
2019-01-23T11:01:53.122Z,62.57
2019-01-23T11:04:24.217Z,61.73
2019-01-23T11:06:55.352Z,64.67
2019-01-23T11:09:26.550Z,65.97
2019-01-23T11:11:57.778Z,62.70
2019-01-23T11:14:29.127Z,59.43
2019-01-23T11:17:00.387Z,60.67
2019-01-23T11:19:31.629Z,60.07
2019-01-23T11:22:02.750Z,58.37
2019-01-23T11:24:36.675Z,65.70
2019-01-23T11:27:08.044Z,53.50
2019-01-23T11:29:39.123Z,57.17
2019-01-23T11:32:10.212Z,55.50
2019-01-23T11:34:41.348Z,56.17
2019-01-23T11:37:12.463Z,53.70
2019-01-23T11:39:43.648Z,61.57
2019-01-23T11:42:14.818Z,51.70
2019-01-23T11:44:45.971Z,61.60
2019-01-23T11:47:17.077Z,68.43
2019-01-23T11:49:48.187Z,70.87
2019-01-23T11:52:19.323Z,52.83
2019-01-23T11:54:53.572Z,68.13
2019-01-23T11:57:24.742Z,65.90
2019-01-23T11:59:55.866Z,65.70
2019-01-23T12:02:30.953Z,74.00
2019-01-23T12:05:00.022Z,63.23
2019-01-23T12:07:31.257Z,63.93
2019-01-23T12:10:02.310Z,59.40
2019-01-23T12:12:33.431Z,58.80
2019-01-23T12:15:04.719Z,57.30
2019-01-23T12:17:35.923Z,56.40
2019-01-23T12:20:07.911Z,55.80
2019-01-23T12:22:39.288Z,66.53
2019-01-23T12:25:10.513Z,62.87
2019-01-23T12:27:41.707Z,62.33
2019-01-23T12:30:24.982Z,57.47
2019-01-23T12:32:56.154Z,50.60
2019-01-23T12:35:28.572Z,57.93
2019-01-23T12:37:59.853Z,58.23
2019-01-23T12:40:30.877Z,52.57
2019-01-23T12:43:02.008Z,57.33
2019-01-23T12:45:33.291Z,56.53
2019-01-23T12:48:04.551Z,60.63
2019-01-23T12:50:35.654Z,53.43
2019-01-23T12:53:06.720Z,43.50
2019-01-23T12:55:37.790Z,50.67
2019-01-23T12:58:08.884Z,54.60
2019-01-23T13:00:40.662Z,56.57
2019-01-23T13:03:11.832Z,53.10
2019-01-23T13:05:43.030Z,60.87
2019-01-23T13:08:14.158Z,58.40
2019-01-23T13:10:45.941Z,58.23
2019-01-23T13:13:17.142Z,52.43
2019-01-23T13:15:48.369Z,56.27
2019-01-23T13:18:19.527Z,66.00
2019-01-23T13:20:50.700Z,56.43
2019-01-23T13:23:22.025Z,59.37
2019-01-23T13:25:53.369Z,57.00
2019-01-23T13:28:25.597Z,67.63
2019-01-23T13:30:56.719Z,77.30
2019-01-23T13:33:27.868Z,72.23
2019-01-23T13:35:59.072Z,80.13
2019-01-23T13:38:30.349Z,69.90
2019-01-23T13:41:01.607Z,85.60
2019-01-23T13:43:32.846Z,77.80
2019-01-23T13:46:04.021Z,60.30
2019-01-23T13:48:35.166Z,55.43
2019-01-23T13:51:06.330Z,53.73
2019-01-23T13:53:49.175Z,54.97
2019-01-23T13:56:20.297Z,59.20
2019-01-23T13:58:51.549Z,61.30
2019-01-23T14:04:11.540Z,60.60
2019-01-23T14:06:42.803Z,60.87
2019-01-23T14:09:14.040Z,59.90
2019-01-23T14:11:45.499Z,57.17
2019-01-23T14:14:16.770Z,56.63
2019-01-23T14:16:48.070Z,53.50
2019-01-23T14:19:22.281Z,47.87
2019-01-23T14:21:53.467Z,56.60
2019-01-23T14:24:27.646Z,47.40
2019-01-23T14:26:58.987Z,50.93
2019-01-23T14:29:30.195Z,44.60
2019-01-23T14:32:03.554Z,47.43
2019-01-23T14:34:38.653Z,45.83
2019-01-23T14:37:10.972Z,56.87
2019-01-23T14:39:42.243Z,49.70
2019-01-23T14:42:15.717Z,62.63
2019-01-23T14:44:47.149Z,61.40
2019-01-23T14:47:18.338Z,42.90
2019-01-23T14:49:49.544Z,59.40
2019-01-23T14:52:20.865Z,50.53
2019-01-23T14:54:52.008Z,56.40
2019-01-23T14:57:23.140Z,51.93
2019-01-23T14:59:54.244Z,53.10
2019-01-23T15:02:26.696Z,45.07
2019-01-23T15:04:58.018Z,50.83
2019-01-23T15:07:29.155Z,55.33
2019-01-23T15:10:00.370Z,43.53
2019-01-23T15:12:31.519Z,41.47
2019-01-23T15:15:02.801Z,45.80
2019-01-23T15:20:43.491Z,45.97
2019-01-23T15:23:14.693Z,44.80
2019-01-23T15:25:45.875Z,46.93
2019-01-23T15:28:18.099Z,40.60
2019-01-23T15:30:50.425Z,41.97
2019-01-23T15:33:21.684Z,47.03
2019-01-23T15:35:52.926Z,45.93
2019-01-23T15:38:24.096Z,50.90
2019-01-23T15:40:55.331Z,49.07
2019-01-23T15:43:26.493Z,51.77
2019-01-23T15:45:57.695Z,52.90
2019-01-23T15:48:29.020Z,50.83
2019-01-23T15:51:00.118Z,55.00
2019-01-23T15:53:34.009Z,52.47
2019-01-23T15:56:06.322Z,46.37
2019-01-23T15:58:37.583Z,48.43
2019-01-23T16:01:08.743Z,45.57
2019-01-23T16:03:39.977Z,44.83
2019-01-23T16:06:11.536Z,43.93
2019-01-23T16:08:42.864Z,43.83
2019-01-23T16:11:14.028Z,42.43
2019-01-23T16:13:45.129Z,44.50
2019-01-23T16:16:16.283Z,44.80
2019-01-23T16:18:47.347Z,47.47
2019-01-23T16:21:18.580Z,48.20
2019-01-23T16:23:49.745Z,44.20
2019-01-23T16:26:23.404Z,44.80
2019-01-23T16:29:08.670Z,45.77
2019-01-23T16:31:59.765Z,48.53
2019-01-23T16:35:04.680Z,49.60
2019-01-23T16:37:38.254Z,47.37
2019-01-23T16:40:09.692Z,48.10
2019-01-23T16:42:40.873Z,48.20
2019-01-23T16:45:13.040Z,52.53
2019-01-23T16:47:45.716Z,56.37
2019-01-23T16:50:28.365Z,52.23
2019-01-23T16:52:59.532Z,51.27
2019-01-23T16:55:30.676Z,47.90
2019-01-23T16:58:01.794Z,47.50
2019-01-23T17:00:33.054Z,44.60
2019-01-23T17:03:04.717Z,47.07
2019-01-23T17:05:36.480Z,47.00
2019-01-23T17:08:09.356Z,46.00
2019-01-23T17:10:40.630Z,48.97
2019-01-23T17:13:11.688Z,47.07
2019-01-23T17:15:42.820Z,44.20
2019-01-23T17:18:13.960Z,45.83
2019-01-23T17:20:49.754Z,48.23
2019-01-23T17:23:21.128Z,45.33
2019-01-23T17:25:52.597Z,47.03
2019-01-23T17:28:24.890Z,44.40
2019-01-23T17:30:56.012Z,44.90
2019-01-23T17:33:27.237Z,49.83
2019-01-23T17:35:58.624Z,39.67
2019-01-23T17:38:29.858Z,44.83
2019-01-23T17:41:01.580Z,42.97
2019-01-23T17:43:33.340Z,44.63
2019-01-23T17:46:04.697Z,46.47
2019-01-23T17:48:35.853Z,44.00
2019-01-23T17:51:07.054Z,42.80
2019-01-23T17:53:39.329Z,40.27
2019-01-23T17:56:10.546Z,38.27
2019-01-23T17:58:41.731Z,35.97
2019-01-23T18:01:12.931Z,34.37
2019-01-23T18:03:44.315Z,40.87
2019-01-23T18:06:15.639Z,39.27
2019-01-23T18:08:47.558Z,42.47
2019-01-23T18:11:19.333Z,46.43
2019-01-23T18:13:50.630Z,37.73
2019-01-23T18:16:22.699Z,49.07
2019-01-23T18:18:54.221Z,40.90
2019-01-23T18:21:26.161Z,37.80
2019-01-23T18:23:57.569Z,38.63
2019-01-23T18:26:29.356Z,36.60
2019-01-23T18:29:01.604Z,39.93
2019-01-23T18:31:52.714Z,39.13
2019-01-23T18:35:00.891Z,35.80
2019-01-23T18:38:02.948Z,38.57
2019-01-23T18:41:11.072Z,38.03
2019-01-23T18:44:08.289Z,37.93
2019-01-23T18:47:29.613Z,38.53
2019-01-23T18:50:50.728Z,35.33
2019-01-23T18:53:22.468Z,35.17
2019-01-23T18:55:55.414Z,43.13
2019-01-23T18:58:27.334Z,45.37
2019-01-23T19:00:59.095Z,44.10
2019-01-23T19:03:30.527Z,40.33
2019-01-23T19:06:01.927Z,37.37
2019-01-23T19:08:34.138Z,40.83
2019-01-23T19:11:05.816Z,43.20
2019-01-23T19:13:37.062Z,37.53
2019-01-23T19:16:09.033Z,40.30
2019-01-23T19:18:40.299Z,41.63
2019-01-23T19:21:11.532Z,43.27
2019-01-23T19:23:42.790Z,44.23
2019-01-23T19:26:14.221Z,41.70
2019-01-23T19:28:45.352Z,42.83
2019-01-23T19:31:16.620Z,43.27
2019-01-23T19:33:47.810Z,41.13
2019-01-23T19:36:19.083Z,36.83
2019-01-23T19:38:50.285Z,42.20
2019-01-23T19:41:21.863Z,41.67
2019-01-23T19:43:53.378Z,37.80
2019-01-23T19:46:24.684Z,43.10
2019-01-23T19:48:57.393Z,41.33
2019-01-23T19:51:29.241Z,37.30
2019-01-23T19:54:01.179Z,37.13
2019-01-23T19:56:32.591Z,39.33
2019-01-23T19:59:04.237Z,41.27
2019-01-23T20:01:36.011Z,40.13
2019-01-23T20:04:07.700Z,36.50
2019-01-23T20:06:39.659Z,36.13
2019-01-23T20:09:12.543Z,36.27
2019-01-23T20:11:44.275Z,35.03
2019-01-23T20:14:16.017Z,41.30
2019-01-23T20:16:47.585Z,39.97
2019-01-23T20:19:18.837Z,37.57
2019-01-23T20:21:50.020Z,36.30
2019-01-23T20:24:21.541Z,35.77
2019-01-23T20:26:52.857Z,35.30
2019-01-23T20:29:35.303Z,41.20
2019-01-23T20:32:06.475Z,41.30
2019-01-23T20:34:37.733Z,36.67
2019-01-23T20:37:08.900Z,40.03
2019-01-23T20:39:40.128Z,40.70
2019-01-23T20:42:11.509Z,41.83
2019-01-23T20:44:42.701Z,42.87
2019-01-23T20:47:14.142Z,44.53
2019-01-23T20:49:45.520Z,41.93
2019-01-23T20:52:16.850Z,44.87
2019-01-23T20:54:48.048Z,46.17
2019-01-23T20:57:19.340Z,40.63
2019-01-23T20:59:50.789Z,45.87
2019-01-23T21:02:22.294Z,45.73
2019-01-23T21:04:53.456Z,39.10
2019-01-23T21:07:24.699Z,50.27
2019-01-23T21:09:55.983Z,47.47
2019-01-23T21:12:27.164Z,42.53
2019-01-23T21:14:58.414Z,46.30
2019-01-23T21:17:29.579Z,44.83
2019-01-23T21:20:01.130Z,47.17
2019-01-23T21:22:33.436Z,45.53
2019-01-23T21:25:06.721Z,35.50
2019-01-23T21:27:37.980Z,41.07
2019-01-23T21:30:15.899Z,37.60
2019-01-23T21:32:47.287Z,37.33
2019-01-23T21:35:20.277Z,42.53
2019-01-23T21:37:51.742Z,34.47
2019-01-23T21:40:28.361Z,36.03
2019-01-23T21:42:59.822Z,34.63
2019-01-23T21:45:33.267Z,38.07
2019-01-23T21:48:05.151Z,35.03
2019-01-23T21:50:36.584Z,31.17
2019-01-23T21:53:07.987Z,33.03
2019-01-23T21:55:39.537Z,32.67
2019-01-23T21:58:10.732Z,31.77
2019-01-23T22:00:44.497Z,31.50
2019-01-23T22:03:15.650Z,35.03
2019-01-23T22:05:46.905Z,28.77
2019-01-23T22:08:18.306Z,28.50
2019-01-23T22:11:02.286Z,30.33
2019-01-23T22:13:33.514Z,32.50
2019-01-23T22:16:05.985Z,30.57
2019-01-23T22:18:37.290Z,27.37
2019-01-23T22:21:08.404Z,32.63
2019-01-23T22:23:39.501Z,27.63
2019-01-23T22:26:10.675Z,30.97
2019-01-23T22:28:42.964Z,34.90
2019-01-23T22:31:14.227Z,38.47
2019-01-23T22:33:45.653Z,30.37
2019-01-23T22:36:16.797Z,33.07
2019-01-23T22:38:48.001Z,35.10
2019-01-23T22:41:19.155Z,31.17
2019-01-23T22:43:50.272Z,27.83
2019-01-23T22:46:21.595Z,30.57
2019-01-23T22:48:52.744Z,35.00
2019-01-23T22:51:23.840Z,34.60
2019-01-23T22:53:54.985Z,34.70
2019-01-23T22:56:26.495Z,34.90
2019-01-23T22:58:57.702Z,40.23
2019-01-23T23:01:30.401Z,37.13
2019-01-23T23:04:03.397Z,42.27
2019-01-23T23:06:34.842Z,40.73
2019-01-23T23:09:10.243Z,35.73
2019-01-23T23:11:41.388Z,38.83
2019-01-23T23:14:13.310Z,34.93
2019-01-23T23:16:44.550Z,31.93
2019-01-23T23:19:15.607Z,34.53
2019-01-23T23:21:46.790Z,35.97
2019-01-23T23:24:17.962Z,32.97
2019-01-23T23:26:49.229Z,29.53
2019-01-23T23:29:21.508Z,33.93
2019-01-23T23:31:53.592Z,28.33
2019-01-23T23:34:24.736Z,27.37
2019-01-23T23:36:55.796Z,33.97
2019-01-23T23:39:26.867Z,28.37
2019-01-23T23:41:58.014Z,29.87
2019-01-23T23:44:29.086Z,32.40
2019-01-23T23:47:00.285Z,30.03
2019-01-23T23:49:31.433Z,33.67
2019-01-23T23:52:02.673Z,31.60
2019-01-23T23:54:34.546Z,30.03
2019-01-23T23:57:05.742Z,31.43
2019-01-23T23:59:36.852Z,32.33
